Bom Jesus do Norte, Brazil
Current Conditions -  °F | °C
As of 7:00 PM on Tuesday 21 Oct 2014 (Local Time) from SBCP Reporting Station
Overcast Overcast  
Wind Chill: 72°   Ceiling: 9000
Heat Index: 72°   Visibility: 6mi
Dew Point: 61°   Wind: 15mph
Humidity: 69%   Direction: 190°S
Pressure: 30.09"   Gusts: NA
Location:  21.13°S, 41.68°W
Report Text: SBCP 212100Z 19013KT 9999 FEW020 OVC090 22/16 Q1019
Loading
Personal Weather Stations






























Interactive Weather Map
Tropical Storm Tracking
New forecast layout! Learn more

10-Day Weather Forecast

Advertisements
Track Severe Weather on mobile